sensor_id;sensor_type;location;lat;lon;timestamp;P1;durP1;ratioP1;P2;durP2;ratioP2
63280;SDS011;49406;51.044;3.766;2022-07-01T00:00:23;17.30;;;7.80;;
63280;SDS011;49406;51.044;3.766;2022-07-01T00:02:58;17.00;;;7.70;;
63280;SDS011;49406;51.044;3.766;2022-07-01T00:05:32;14.70;;;7.40;;
63280;SDS011;49406;51.044;3.766;2022-07-01T00:08:06;17.80;;;7.40;;
63280;SDS011;49406;51.044;3.766;2022-07-01T00:10:41;15.90;;;7.20;;
63280;SDS011;49406;51.044;3.766;2022-07-01T00:13:15;17.30;;;7.40;;
63280;SDS011;49406;51.044;3.766;2022-07-01T00:15:49;16.60;;;7.70;;
63280;SDS011;49406;51.044;3.766;2022-07-01T00:18:24;17.10;;;8.10;;
63280;SDS011;49406;51.044;3.766;2022-07-01T00:20:58;16.70;;;7.90;;
63280;SDS011;49406;51.044;3.766;2022-07-01T00:23:33;16.40;;;7.00;;
63280;SDS011;49406;51.044;3.766;2022-07-01T00:26:08;16.40;;;7.20;;
63280;SDS011;49406;51.044;3.766;2022-07-01T00:28:42;20.90;;;8.00;;
63280;SDS011;49406;51.044;3.766;2022-07-01T00:31:16;18.50;;;8.20;;
63280;SDS011;49406;51.044;3.766;2022-07-01T00:33:51;19.50;;;7.50;;
63280;SDS011;49406;51.044;3.766;2022-07-01T00:36:25;17.60;;;7.30;;
63280;SDS011;49406;51.044;3.766;2022-07-01T00:39:00;17.40;;;7.10;;
63280;SDS011;49406;51.044;3.766;2022-07-01T00:41:34;16.60;;;7.00;;
63280;SDS011;49406;51.044;3.766;2022-07-01T00:44:16;16.80;;;7.40;;
63280;SDS011;49406;51.044;3.766;2022-07-01T00:46:51;16.40;;;8.00;;
63280;SDS011;49406;51.044;3.766;2022-07-01T00:49:25;24.50;;;8.30;;
63280;SDS011;49406;51.044;3.766;2022-07-01T00:52:01;18.80;;;7.10;;
63280;SDS011;49406;51.044;3.766;2022-07-01T00:54:36;21.40;;;8.10;;
63280;SDS011;49406;51.044;3.766;2022-07-01T00:57:12;16.00;;;7.70;;
63280;SDS011;49406;51.044;3.766;2022-07-01T00:59:47;19.30;;;8.10;;
63280;SDS011;49406;51.044;3.766;2022-07-01T01:02:21;16.70;;;9.10;;
63280;SDS011;49406;51.044;3.766;2022-07-01T01:04:56;24.90;;;7.80;;
63280;SDS011;49406;51.044;3.766;2022-07-01T01:07:30;19.50;;;8.00;;
63280;SDS011;49406;51.044;3.766;2022-07-01T01:10:05;17.10;;;7.40;;
63280;SDS011;49406;51.044;3.766;2022-07-01T01:12:40;15.30;;;7.40;;
63280;SDS011;49406;51.044;3.766;2022-07-01T01:15:18;21.50;;;8.40;;
63280;SDS011;49406;51.044;3.766;2022-07-01T01:17:53;20.10;;;8.60;;
63280;SDS011;49406;51.044;3.766;2022-07-01T01:23:06;16.70;;;8.10;;
63280;SDS011;49406;51.044;3.766;2022-07-01T01:25:41;19.70;;;7.00;;
63280;SDS011;49406;51.044;3.766;2022-07-01T01:28:15;16.50;;;8.10;;
63280;SDS011;49406;51.044;3.766;2022-07-01T01:30:50;19.90;;;7.90;;
63280;SDS011;49406;51.044;3.766;2022-07-01T01:33:24;16.40;;;7.80;;
63280;SDS011;49406;51.044;3.766;2022-07-01T01:35:59;18.60;;;7.90;;
63280;SDS011;49406;51.044;3.766;2022-07-01T01:38:34;20.50;;;7.20;;
63280;SDS011;49406;51.044;3.766;2022-07-01T01:41:08;20.00;;;7.80;;
63280;SDS011;49406;51.044;3.766;2022-07-01T01:43:43;16.00;;;8.60;;
63280;SDS011;49406;51.044;3.766;2022-07-01T01:46:18;19.70;;;8.20;;
63280;SDS011;49406;51.044;3.766;2022-07-01T01:48:52;16.30;;;8.40;;
63280;SDS011;49406;51.044;3.766;2022-07-01T01:51:27;16.80;;;7.70;;
63280;SDS011;49406;51.044;3.766;2022-07-01T01:54:01;18.40;;;7.70;;
63280;SDS011;49406;51.044;3.766;2022-07-01T01:56:36;23.20;;;8.50;;
63280;SDS011;49406;51.044;3.766;2022-07-01T01:59:10;20.80;;;8.00;;
63280;SDS011;49406;51.044;3.766;2022-07-01T02:01:45;24.10;;;9.00;;
63280;SDS011;49406;51.044;3.766;2022-07-01T02:04:19;20.20;;;8.10;;
63280;SDS011;49406;51.044;3.766;2022-07-01T02:06:54;19.10;;;8.40;;
63280;SDS011;49406;51.044;3.766;2022-07-01T02:09:29;18.70;;;8.00;;
63280;SDS011;49406;51.044;3.766;2022-07-01T02:12:04;19.40;;;7.80;;
63280;SDS011;49406;51.044;3.766;2022-07-01T02:14:39;17.20;;;8.00;;
63280;SDS011;49406;51.044;3.766;2022-07-01T02:17:13;21.30;;;8.00;;
63280;SDS011;49406;51.044;3.766;2022-07-01T02:19:47;16.40;;;7.80;;
63280;SDS011;49406;51.044;3.766;2022-07-01T02:22:22;17.90;;;7.40;;
63280;SDS011;49406;51.044;3.766;2022-07-01T02:24:56;18.80;;;7.60;;
63280;SDS011;49406;51.044;3.766;2022-07-01T02:27:31;20.00;;;8.40;;
63280;SDS011;49406;51.044;3.766;2022-07-01T02:30:06;15.00;;;8.20;;
63280;SDS011;49406;51.044;3.766;2022-07-01T02:32:41;20.80;;;8.20;;
63280;SDS011;49406;51.044;3.766;2022-07-01T02:35:16;17.40;;;7.20;;
63280;SDS011;49406;51.044;3.766;2022-07-01T02:37:50;17.50;;;7.00;;
63280;SDS011;49406;51.044;3.766;2022-07-01T02:40:25;19.70;;;7.50;;
63280;SDS011;49406;51.044;3.766;2022-07-01T02:42:59;18.10;;;7.90;;
63280;SDS011;49406;51.044;3.766;2022-07-01T02:45:33;20.00;;;8.40;;
63280;SDS011;49406;51.044;3.766;2022-07-01T02:48:08;18.30;;;8.60;;
63280;SDS011;49406;51.044;3.766;2022-07-01T02:50:42;25.10;;;8.30;;
63280;SDS011;49406;51.044;3.766;2022-07-01T02:53:17;23.60;;;7.50;;
63280;SDS011;49406;51.044;3.766;2022-07-01T02:55:51;18.40;;;7.70;;
63280;SDS011;49406;51.044;3.766;2022-07-01T02:58:25;15.20;;;8.90;;
63280;SDS011;49406;51.044;3.766;2022-07-01T03:01:00;17.00;;;8.10;;
63280;SDS011;49406;51.044;3.766;2022-07-01T03:03:34;17.00;;;7.50;;
63280;SDS011;49406;51.044;3.766;2022-07-01T03:06:09;20.90;;;7.70;;
63280;SDS011;49406;51.044;3.766;2022-07-01T03:08:43;17.70;;;7.90;;
63280;SDS011;49406;51.044;3.766;2022-07-01T03:11:17;22.10;;;7.90;;
63280;SDS011;49406;51.044;3.766;2022-07-01T03:13:52;23.10;;;8.20;;
63280;SDS011;49406;51.044;3.766;2022-07-01T03:16:26;21.70;;;8.00;;
63280;SDS011;49406;51.044;3.766;2022-07-01T03:19:00;18.80;;;7.30;;
63280;SDS011;49406;51.044;3.766;2022-07-01T03:21:35;19.90;;;8.10;;
63280;SDS011;49406;51.044;3.766;2022-07-01T03:24:09;21.30;;;8.10;;
63280;SDS011;49406;51.044;3.766;2022-07-01T03:26:43;22.50;;;8.10;;
63280;SDS011;49406;51.044;3.766;2022-07-01T03:29:18;19.60;;;8.00;;
63280;SDS011;49406;51.044;3.766;2022-07-01T03:31:52;15.20;;;8.30;;
63280;SDS011;49406;51.044;3.766;2022-07-01T03:34:27;18.30;;;8.10;;
63280;SDS011;49406;51.044;3.766;2022-07-01T03:37:01;20.40;;;8.00;;
63280;SDS011;49406;51.044;3.766;2022-07-01T03:39:36;17.20;;;8.90;;
63280;SDS011;49406;51.044;3.766;2022-07-01T03:42:11;20.80;;;8.40;;
63280;SDS011;49406;51.044;3.766;2022-07-01T03:44:45;21.80;;;8.60;;
63280;SDS011;49406;51.044;3.766;2022-07-01T03:47:20;26.70;;;8.30;;
63280;SDS011;49406;51.044;3.766;2022-07-01T03:49:54;19.80;;;8.50;;
63280;SDS011;49406;51.044;3.766;2022-07-01T03:52:29;20.90;;;8.80;;
63280;SDS011;49406;51.044;3.766;2022-07-01T03:55:03;21.90;;;8.10;;
63280;SDS011;49406;51.044;3.766;2022-07-01T03:57:38;21.10;;;7.70;;
63280;SDS011;49406;51.044;3.766;2022-07-01T04:00:13;19.60;;;7.20;;
63280;SDS011;49406;51.044;3.766;2022-07-01T04:02:49;20.60;;;7.00;;
63280;SDS011;49406;51.044;3.766;2022-07-01T04:05:23;17.90;;;7.40;;
63280;SDS011;49406;51.044;3.766;2022-07-01T04:07:58;18.10;;;7.10;;
63280;SDS011;49406;51.044;3.766;2022-07-01T04:10:32;17.10;;;7.10;;
63280;SDS011;49406;51.044;3.766;2022-07-01T04:13:08;13.80;;;6.80;;
63280;SDS011;49406;51.044;3.766;2022-07-01T04:15:42;20.40;;;7.20;;
63280;SDS011;49406;51.044;3.766;2022-07-01T04:18:17;20.00;;;8.40;;
63280;SDS011;49406;51.044;3.766;2022-07-01T04:20:51;16.20;;;7.60;;
63280;SDS011;49406;51.044;3.766;2022-07-01T04:23:43;19.80;;;6.40;;
63280;SDS011;49406;51.044;3.766;2022-07-01T04:26:17;22.20;;;6.90;;
63280;SDS011;49406;51.044;3.766;2022-07-01T04:28:52;23.70;;;6.70;;
63280;SDS011;49406;51.044;3.766;2022-07-01T04:31:27;15.30;;;6.30;;
63280;SDS011;49406;51.044;3.766;2022-07-01T04:34:02;20.10;;;6.80;;
63280;SDS011;49406;51.044;3.766;2022-07-01T04:36:37;18.20;;;6.10;;
63280;SDS011;49406;51.044;3.766;2022-07-01T04:39:12;15.40;;;6.00;;
63280;SDS011;49406;51.044;3.766;2022-07-01T04:41:46;17.30;;;5.80;;
63280;SDS011;49406;51.044;3.766;2022-07-01T04:44:34;15.80;;;5.80;;
63280;SDS011;49406;51.044;3.766;2022-07-01T04:47:09;23.80;;;7.60;;
63280;SDS011;49406;51.044;3.766;2022-07-01T04:49:43;17.30;;;6.60;;
63280;SDS011;49406;51.044;3.766;2022-07-01T04:52:18;19.60;;;6.10;;
63280;SDS011;49406;51.044;3.766;2022-07-01T04:54:52;18.60;;;5.80;;
63280;SDS011;49406;51.044;3.766;2022-07-01T04:57:27;15.20;;;5.30;;
63280;SDS011;49406;51.044;3.766;2022-07-01T05:00:01;19.20;;;5.60;;
63280;SDS011;49406;51.044;3.766;2022-07-01T05:02:37;18.30;;;6.00;;
63280;SDS011;49406;51.044;3.766;2022-07-01T05:05:11;20.60;;;5.80;;
63280;SDS011;49406;51.044;3.766;2022-07-01T05:07:46;18.60;;;5.50;;
63280;SDS011;49406;51.044;3.766;2022-07-01T05:10:20;17.90;;;5.10;;
63280;SDS011;49406;51.044;3.766;2022-07-01T05:12:55;21.40;;;5.50;;
63280;SDS011;49406;51.044;3.766;2022-07-01T05:15:29;16.20;;;5.50;;
63280;SDS011;49406;51.044;3.766;2022-07-01T05:18:04;20.50;;;6.10;;
63280;SDS011;49406;51.044;3.766;2022-07-01T05:20:52;19.20;;;5.00;;
63280;SDS011;49406;51.044;3.766;2022-07-01T05:23:44;15.20;;;4.50;;
63280;SDS011;49406;51.044;3.766;2022-07-01T05:26:19;14.40;;;5.30;;
63280;SDS011;49406;51.044;3.766;2022-07-01T05:28:53;16.50;;;5.50;;
63280;SDS011;49406;51.044;3.766;2022-07-01T05:31:27;14.80;;;4.90;;
63280;SDS011;49406;51.044;3.766;2022-07-01T05:34:02;17.40;;;4.40;;
63280;SDS011;49406;51.044;3.766;2022-07-01T05:36:38;14.20;;;3.80;;
63280;SDS011;49406;51.044;3.766;2022-07-01T05:39:12;17.30;;;4.40;;
63280;SDS011;49406;51.044;3.766;2022-07-01T05:41:47;15.30;;;4.00;;
63280;SDS011;49406;51.044;3.766;2022-07-01T05:44:21;15.70;;;4.40;;
63280;SDS011;49406;51.044;3.766;2022-07-01T05:46:55;15.70;;;4.30;;
63280;SDS011;49406;51.044;3.766;2022-07-01T05:49:30;16.80;;;4.10;;
63280;SDS011;49406;51.044;3.766;2022-07-01T05:52:05;22.40;;;4.50;;
63280;SDS011;49406;51.044;3.766;2022-07-01T05:54:40;17.70;;;4.10;;
63280;SDS011;49406;51.044;3.766;2022-07-01T05:57:14;18.70;;;4.10;;
63280;SDS011;49406;51.044;3.766;2022-07-01T05:59:49;13.40;;;3.60;;
63280;SDS011;49406;51.044;3.766;2022-07-01T06:02:23;16.40;;;3.90;;
63280;SDS011;49406;51.044;3.766;2022-07-01T06:04:58;15.10;;;3.80;;
63280;SDS011;49406;51.044;3.766;2022-07-01T06:07:33;14.20;;;3.40;;
63280;SDS011;49406;51.044;3.766;2022-07-01T06:10:08;19.60;;;3.90;;
63280;SDS011;49406;51.044;3.766;2022-07-01T06:12:43;14.90;;;3.60;;
63280;SDS011;49406;51.044;3.766;2022-07-01T06:15:17;16.80;;;3.40;;
63280;SDS011;49406;51.044;3.766;2022-07-01T06:17:52;11.90;;;3.10;;
63280;SDS011;49406;51.044;3.766;2022-07-01T06:20:26;12.10;;;3.00;;
63280;SDS011;49406;51.044;3.766;2022-07-01T06:23:01;16.30;;;3.30;;
63280;SDS011;49406;51.044;3.766;2022-07-01T06:25:36;11.20;;;2.90;;
63280;SDS011;49406;51.044;3.766;2022-07-01T06:28:10;13.30;;;2.70;;
63280;SDS011;49406;51.044;3.766;2022-07-01T06:30:45;14.10;;;3.50;;
63280;SDS011;49406;51.044;3.766;2022-07-01T06:33:19;14.00;;;3.00;;
63280;SDS011;49406;51.044;3.766;2022-07-01T06:35:53;13.60;;;3.00;;
63280;SDS011;49406;51.044;3.766;2022-07-01T06:38:28;18.10;;;3.70;;
63280;SDS011;49406;51.044;3.766;2022-07-01T06:41:02;14.80;;;3.10;;
63280;SDS011;49406;51.044;3.766;2022-07-01T06:43:54;15.50;;;2.70;;
63280;SDS011;49406;51.044;3.766;2022-07-01T06:46:30;14.30;;;2.90;;
63280;SDS011;49406;51.044;3.766;2022-07-01T06:49:05;15.40;;;3.20;;
63280;SDS011;49406;51.044;3.766;2022-07-01T06:51:39;12.70;;;2.90;;
63280;SDS011;49406;51.044;3.766;2022-07-01T06:54:14;13.10;;;3.30;;
63280;SDS011;49406;51.044;3.766;2022-07-01T06:56:49;14.20;;;2.60;;
63280;SDS011;49406;51.044;3.766;2022-07-01T06:59:23;10.70;;;2.40;;
63280;SDS011;49406;51.044;3.766;2022-07-01T07:01:57;15.00;;;3.30;;
63280;SDS011;49406;51.044;3.766;2022-07-01T07:04:32;21.10;;;4.30;;
63280;SDS011;49406;51.044;3.766;2022-07-01T07:07:07;13.80;;;2.30;;
63280;SDS011;49406;51.044;3.766;2022-07-01T07:09:41;11.90;;;2.60;;
63280;SDS011;49406;51.044;3.766;2022-07-01T07:12:16;13.50;;;2.60;;
63280;SDS011;49406;51.044;3.766;2022-07-01T07:14:50;14.00;;;2.90;;
63280;SDS011;49406;51.044;3.766;2022-07-01T07:17:24;12.30;;;2.80;;
63280;SDS011;49406;51.044;3.766;2022-07-01T07:19:59;15.00;;;2.60;;
63280;SDS011;49406;51.044;3.766;2022-07-01T07:22:33;13.50;;;2.60;;
63280;SDS011;49406;51.044;3.766;2022-07-01T07:25:08;11.90;;;2.30;;
63280;SDS011;49406;51.044;3.766;2022-07-01T07:27:42;12.40;;;2.30;;
63280;SDS011;49406;51.044;3.766;2022-07-01T07:30:17;10.50;;;2.30;;
63280;SDS011;49406;51.044;3.766;2022-07-01T07:32:52;11.70;;;2.80;;
63280;SDS011;49406;51.044;3.766;2022-07-01T07:35:26;7.60;;;1.90;;
63280;SDS011;49406;51.044;3.766;2022-07-01T07:38:00;12.30;;;2.10;;
63280;SDS011;49406;51.044;3.766;2022-07-01T07:40:35;10.20;;;2.30;;
63280;SDS011;49406;51.044;3.766;2022-07-01T07:43:09;9.40;;;2.50;;
63280;SDS011;49406;51.044;3.766;2022-07-01T07:45:44;10.20;;;2.60;;
63280;SDS011;49406;51.044;3.766;2022-07-01T07:48:18;15.40;;;2.40;;
63280;SDS011;49406;51.044;3.766;2022-07-01T07:50:53;12.40;;;2.30;;
63280;SDS011;49406;51.044;3.766;2022-07-01T07:53:27;11.50;;;2.10;;
63280;SDS011;49406;51.044;3.766;2022-07-01T07:56:01;10.40;;;2.00;;
63280;SDS011;49406;51.044;3.766;2022-07-01T07:58:36;10.50;;;2.30;;
63280;SDS011;49406;51.044;3.766;2022-07-01T08:01:13;13.70;;;2.20;;
63280;SDS011;49406;51.044;3.766;2022-07-01T08:03:47;10.30;;;1.80;;
63280;SDS011;49406;51.044;3.766;2022-07-01T08:06:22;9.60;;;1.70;;
63280;SDS011;49406;51.044;3.766;2022-07-01T08:08:56;10.30;;;1.90;;
63280;SDS011;49406;51.044;3.766;2022-07-01T08:11:30;11.50;;;2.00;;
63280;SDS011;49406;51.044;3.766;2022-07-01T08:14:05;11.30;;;2.00;;
63280;SDS011;49406;51.044;3.766;2022-07-01T08:16:39;10.50;;;1.90;;
63280;SDS011;49406;51.044;3.766;2022-07-01T08:19:14;9.30;;;1.80;;
63280;SDS011;49406;51.044;3.766;2022-07-01T08:21:48;11.30;;;1.30;;
63280;SDS011;49406;51.044;3.766;2022-07-01T08:24:22;9.20;;;2.00;;
63280;SDS011;49406;51.044;3.766;2022-07-01T08:26:57;11.00;;;1.90;;
63280;SDS011;49406;51.044;3.766;2022-07-01T08:29:31;11.20;;;1.80;;
63280;SDS011;49406;51.044;3.766;2022-07-01T08:32:06;11.60;;;1.70;;
63280;SDS011;49406;51.044;3.766;2022-07-01T08:34:41;10.80;;;1.90;;
63280;SDS011;49406;51.044;3.766;2022-07-01T08:37:15;11.00;;;2.00;;
63280;SDS011;49406;51.044;3.766;2022-07-01T08:39:50;9.80;;;1.80;;
63280;SDS011;49406;51.044;3.766;2022-07-01T08:42:24;7.60;;;1.60;;
63280;SDS011;49406;51.044;3.766;2022-07-01T08:44:58;8.30;;;1.50;;
63280;SDS011;49406;51.044;3.766;2022-07-01T08:47:33;10.60;;;1.90;;
63280;SDS011;49406;51.044;3.766;2022-07-01T08:50:20;8.40;;;1.70;;
63280;SDS011;49406;51.044;3.766;2022-07-01T08:52:55;6.60;;;1.50;;
63280;SDS011;49406;51.044;3.766;2022-07-01T08:55:30;12.10;;;1.60;;
63280;SDS011;49406;51.044;3.766;2022-07-01T08:58:25;8.40;;;1.30;;
63280;SDS011;49406;51.044;3.766;2022-07-01T09:01:12;10.50;;;1.60;;
63280;SDS011;49406;51.044;3.766;2022-07-01T09:03:48;8.10;;;1.50;;
63280;SDS011;49406;51.044;3.766;2022-07-01T09:06:25;8.00;;;1.90;;
63280;SDS011;49406;51.044;3.766;2022-07-01T09:09:09;10.10;;;1.50;;
63280;SDS011;49406;51.044;3.766;2022-07-01T09:11:46;7.60;;;1.40;;
63280;SDS011;49406;51.044;3.766;2022-07-01T09:14:25;8.40;;;1.60;;
63280;SDS011;49406;51.044;3.766;2022-07-01T09:17:01;10.20;;;1.60;;
63280;SDS011;49406;51.044;3.766;2022-07-01T09:19:37;8.70;;;1.60;;
63280;SDS011;49406;51.044;3.766;2022-07-01T09:22:12;6.70;;;1.50;;
63280;SDS011;49406;51.044;3.766;2022-07-01T09:24:46;7.00;;;1.10;;
63280;SDS011;49406;51.044;3.766;2022-07-01T09:27:21;6.00;;;1.20;;
63280;SDS011;49406;51.044;3.766;2022-07-01T09:29:59;6.40;;;1.30;;
63280;SDS011;49406;51.044;3.766;2022-07-01T09:32:34;7.40;;;1.20;;
63280;SDS011;49406;51.044;3.766;2022-07-01T09:35:08;5.90;;;1.20;;
63280;SDS011;49406;51.044;3.766;2022-07-01T09:37:55;7.50;;;1.20;;
63280;SDS011;49406;51.044;3.766;2022-07-01T09:43:26;6.00;;;1.30;;
63280;SDS011;49406;51.044;3.766;2022-07-01T09:46:02;8.20;;;1.20;;
63280;SDS011;49406;51.044;3.766;2022-07-01T09:48:45;7.30;;;1.20;;
63280;SDS011;49406;51.044;3.766;2022-07-01T09:51:19;7.20;;;1.30;;
63280;SDS011;49406;51.044;3.766;2022-07-01T09:53:53;7.60;;;1.10;;
63280;SDS011;49406;51.044;3.766;2022-07-01T09:56:28;5.40;;;1.20;;
63280;SDS011;49406;51.044;3.766;2022-07-01T09:59:03;5.80;;;1.20;;
63280;SDS011;49406;51.044;3.766;2022-07-01T10:01:37;7.10;;;1.10;;
63280;SDS011;49406;51.044;3.766;2022-07-01T10:04:12;8.40;;;1.20;;
63280;SDS011;49406;51.044;3.766;2022-07-01T10:10:00;8.60;;;1.20;;
63280;SDS011;49406;51.044;3.766;2022-07-01T10:12:42;5.90;;;1.10;;
63280;SDS011;49406;51.044;3.766;2022-07-01T10:15:19;7.90;;;1.40;;
63280;SDS011;49406;51.044;3.766;2022-07-01T10:17:55;5.70;;;1.00;;
63280;SDS011;49406;51.044;3.766;2022-07-01T10:20:29;6.60;;;1.10;;
63280;SDS011;49406;51.044;3.766;2022-07-01T10:23:04;7.70;;;1.20;;
63280;SDS011;49406;51.044;3.766;2022-07-01T10:25:41;9.50;;;1.20;;
63280;SDS011;49406;51.044;3.766;2022-07-01T10:28:20;5.60;;;1.10;;
63280;SDS011;49406;51.044;3.766;2022-07-01T10:30:57;6.20;;;1.20;;
63280;SDS011;49406;51.044;3.766;2022-07-01T10:33:35;5.40;;;0.90;;
63280;SDS011;49406;51.044;3.766;2022-07-01T10:36:14;7.00;;;1.20;;
63280;SDS011;49406;51.044;3.766;2022-07-01T10:39:10;7.00;;;1.30;;
63280;SDS011;49406;51.044;3.766;2022-07-01T10:41:58;6.60;;;1.30;;
63280;SDS011;49406;51.044;3.766;2022-07-01T10:44:34;4.90;;;1.00;;
63280;SDS011;49406;51.044;3.766;2022-07-01T10:47:09;7.60;;;1.30;;
63280;SDS011;49406;51.044;3.766;2022-07-01T10:49:54;7.20;;;1.30;;
63280;SDS011;49406;51.044;3.766;2022-07-01T10:52:30;6.80;;;1.30;;
63280;SDS011;49406;51.044;3.766;2022-07-01T10:55:06;8.40;;;1.30;;
63280;SDS011;49406;51.044;3.766;2022-07-01T10:57:41;6.00;;;1.10;;
63280;SDS011;49406;51.044;3.766;2022-07-01T11:03:13;8.10;;;1.40;;
63280;SDS011;49406;51.044;3.766;2022-07-01T11:05:51;5.80;;;1.20;;
63280;SDS011;49406;51.044;3.766;2022-07-01T11:08:27;7.80;;;1.40;;
63280;SDS011;49406;51.044;3.766;2022-07-01T11:11:02;7.50;;;1.10;;
63280;SDS011;49406;51.044;3.766;2022-07-01T11:13:37;6.50;;;1.20;;
63280;SDS011;49406;51.044;3.766;2022-07-01T11:16:11;6.60;;;1.20;;
63280;SDS011;49406;51.044;3.766;2022-07-01T11:18:46;6.20;;;0.90;;
63280;SDS011;49406;51.044;3.766;2022-07-01T11:21:22;6.20;;;1.40;;
63280;SDS011;49406;51.044;3.766;2022-07-01T11:23:58;5.00;;;1.00;;
63280;SDS011;49406;51.044;3.766;2022-07-01T11:26:32;7.50;;;1.00;;
63280;SDS011;49406;51.044;3.766;2022-07-01T11:29:07;6.10;;;1.00;;
63280;SDS011;49406;51.044;3.766;2022-07-01T11:31:43;6.80;;;1.20;;
63280;SDS011;49406;51.044;3.766;2022-07-01T11:34:19;5.60;;;1.10;;
63280;SDS011;49406;51.044;3.766;2022-07-01T11:36:54;6.10;;;1.10;;
63280;SDS011;49406;51.044;3.766;2022-07-01T11:39:46;7.90;;;1.20;;
63280;SDS011;49406;51.044;3.766;2022-07-01T11:42:20;11.10;;;1.40;;
63280;SDS011;49406;51.044;3.766;2022-07-01T11:44:58;6.70;;;1.40;;
63280;SDS011;49406;51.044;3.766;2022-07-01T11:47:33;7.70;;;1.30;;
63280;SDS011;49406;51.044;3.766;2022-07-01T11:50:07;6.40;;;1.30;;
63280;SDS011;49406;51.044;3.766;2022-07-01T11:52:45;7.20;;;1.00;;
63280;SDS011;49406;51.044;3.766;2022-07-01T11:55:20;5.80;;;1.20;;
63280;SDS011;49406;51.044;3.766;2022-07-01T11:57:54;6.20;;;1.10;;
63280;SDS011;49406;51.044;3.766;2022-07-01T12:00:33;7.00;;;1.20;;
63280;SDS011;49406;51.044;3.766;2022-07-01T12:03:08;7.40;;;1.10;;
63280;SDS011;49406;51.044;3.766;2022-07-01T12:05:42;9.10;;;1.40;;
63280;SDS011;49406;51.044;3.766;2022-07-01T12:08:17;7.40;;;1.30;;
63280;SDS011;49406;51.044;3.766;2022-07-01T12:10:52;7.50;;;1.30;;
63280;SDS011;49406;51.044;3.766;2022-07-01T12:13:34;8.40;;;1.40;;
63280;SDS011;49406;51.044;3.766;2022-07-01T12:16:11;6.30;;;1.50;;
63280;SDS011;49406;51.044;3.766;2022-07-01T12:18:57;10.00;;;1.40;;
63280;SDS011;49406;51.044;3.766;2022-07-01T12:21:36;7.40;;;1.30;;
63280;SDS011;49406;51.044;3.766;2022-07-01T12:24:21;8.60;;;1.80;;
63280;SDS011;49406;51.044;3.766;2022-07-01T12:27:02;12.00;;;1.90;;
63280;SDS011;49406;51.044;3.766;2022-07-01T12:29:51;8.90;;;1.50;;
63280;SDS011;49406;51.044;3.766;2022-07-01T12:32:26;7.00;;;1.40;;
63280;SDS011;49406;51.044;3.766;2022-07-01T12:35:03;7.20;;;1.40;;
63280;SDS011;49406;51.044;3.766;2022-07-01T12:37:59;6.90;;;1.50;;
63280;SDS011;49406;51.044;3.766;2022-07-01T12:40:37;9.20;;;1.80;;
63280;SDS011;49406;51.044;3.766;2022-07-01T12:43:23;8.10;;;1.40;;
63280;SDS011;49406;51.044;3.766;2022-07-01T12:46:00;8.10;;;1.50;;
63280;SDS011;49406;51.044;3.766;2022-07-01T12:48:48;9.00;;;1.60;;
63280;SDS011;49406;51.044;3.766;2022-07-01T12:51:29;8.00;;;1.50;;
63280;SDS011;49406;51.044;3.766;2022-07-01T12:54:04;8.80;;;1.70;;
63280;SDS011;49406;51.044;3.766;2022-07-01T12:56:38;6.70;;;1.60;;
63280;SDS011;49406;51.044;3.766;2022-07-01T12:59:16;5.70;;;1.50;;
63280;SDS011;49406;51.044;3.766;2022-07-01T13:01:50;6.80;;;1.30;;
63280;SDS011;49406;51.044;3.766;2022-07-01T13:04:26;9.40;;;1.60;;
63280;SDS011;49406;51.044;3.766;2022-07-01T13:07:01;7.20;;;1.40;;
63280;SDS011;49406;51.044;3.766;2022-07-01T13:09:36;7.00;;;1.30;;
63280;SDS011;49406;51.044;3.766;2022-07-01T13:12:10;5.40;;;1.10;;
63280;SDS011;49406;51.044;3.766;2022-07-01T13:14:44;5.00;;;1.10;;
63280;SDS011;49406;51.044;3.766;2022-07-01T13:17:19;6.10;;;1.20;;
63280;SDS011;49406;51.044;3.766;2022-07-01T13:19:54;8.40;;;1.10;;
63280;SDS011;49406;51.044;3.766;2022-07-01T13:22:28;5.40;;;1.00;;
63280;SDS011;49406;51.044;3.766;2022-07-01T13:25:03;6.60;;;1.10;;
63280;SDS011;49406;51.044;3.766;2022-07-01T13:27:38;7.60;;;1.10;;
63280;SDS011;49406;51.044;3.766;2022-07-01T13:30:14;4.60;;;1.00;;
63280;SDS011;49406;51.044;3.766;2022-07-01T13:32:49;7.10;;;1.30;;
63280;SDS011;49406;51.044;3.766;2022-07-01T13:35:25;4.90;;;1.00;;
63280;SDS011;49406;51.044;3.766;2022-07-01T13:37:59;7.80;;;1.10;;
63280;SDS011;49406;51.044;3.766;2022-07-01T13:40:33;7.90;;;1.10;;
63280;SDS011;49406;51.044;3.766;2022-07-01T13:43:08;5.50;;;1.20;;
63280;SDS011;49406;51.044;3.766;2022-07-01T13:45:42;7.70;;;1.20;;
63280;SDS011;49406;51.044;3.766;2022-07-01T13:48:16;9.60;;;1.60;;
63280;SDS011;49406;51.044;3.766;2022-07-01T13:50:51;5.80;;;1.00;;
63280;SDS011;49406;51.044;3.766;2022-07-01T13:53:26;5.70;;;1.10;;
63280;SDS011;49406;51.044;3.766;2022-07-01T13:56:00;6.80;;;1.20;;
63280;SDS011;49406;51.044;3.766;2022-07-01T13:58:35;5.60;;;1.20;;
63280;SDS011;49406;51.044;3.766;2022-07-01T14:01:09;5.10;;;0.90;;
63280;SDS011;49406;51.044;3.766;2022-07-01T14:03:43;5.50;;;1.00;;
63280;SDS011;49406;51.044;3.766;2022-07-01T14:06:18;3.70;;;0.70;;
63280;SDS011;49406;51.044;3.766;2022-07-01T14:08:53;5.50;;;0.90;;
63280;SDS011;49406;51.044;3.766;2022-07-01T14:11:27;6.30;;;0.90;;
63280;SDS011;49406;51.044;3.766;2022-07-01T14:14:01;4.30;;;0.90;;
63280;SDS011;49406;51.044;3.766;2022-07-01T14:16:36;5.60;;;1.00;;
63280;SDS011;49406;51.044;3.766;2022-07-01T14:19:11;4.80;;;0.80;;
63280;SDS011;49406;51.044;3.766;2022-07-01T14:21:45;6.40;;;1.00;;
63280;SDS011;49406;51.044;3.766;2022-07-01T14:24:20;5.20;;;0.70;;
63280;SDS011;49406;51.044;3.766;2022-07-01T14:26:54;5.10;;;0.80;;
63280;SDS011;49406;51.044;3.766;2022-07-01T14:29:28;4.40;;;1.00;;
63280;SDS011;49406;51.044;3.766;2022-07-01T14:32:03;4.20;;;0.80;;
63280;SDS011;49406;51.044;3.766;2022-07-01T14:34:39;4.80;;;0.90;;
63280;SDS011;49406;51.044;3.766;2022-07-01T14:37:13;4.60;;;0.90;;
63280;SDS011;49406;51.044;3.766;2022-07-01T14:39:48;3.80;;;0.70;;
63280;SDS011;49406;51.044;3.766;2022-07-01T14:42:27;4.50;;;0.90;;
63280;SDS011;49406;51.044;3.766;2022-07-01T14:45:02;4.20;;;0.90;;
63280;SDS011;49406;51.044;3.766;2022-07-01T14:47:38;4.90;;;1.10;;
63280;SDS011;49406;51.044;3.766;2022-07-01T14:50:12;5.10;;;1.00;;
63280;SDS011;49406;51.044;3.766;2022-07-01T14:52:46;4.70;;;1.20;;
63280;SDS011;49406;51.044;3.766;2022-07-01T14:55:21;5.10;;;1.00;;
63280;SDS011;49406;51.044;3.766;2022-07-01T14:57:55;5.20;;;1.10;;
63280;SDS011;49406;51.044;3.766;2022-07-01T15:00:30;8.00;;;1.40;;
63280;SDS011;49406;51.044;3.766;2022-07-01T15:03:08;6.40;;;1.10;;
63280;SDS011;49406;51.044;3.766;2022-07-01T15:05:42;6.00;;;1.30;;
63280;SDS011;49406;51.044;3.766;2022-07-01T15:08:16;6.20;;;1.10;;
63280;SDS011;49406;51.044;3.766;2022-07-01T15:10:51;5.20;;;1.10;;
63280;SDS011;49406;51.044;3.766;2022-07-01T15:13:33;6.50;;;1.40;;
63280;SDS011;49406;51.044;3.766;2022-07-01T15:16:09;8.00;;;1.20;;
63280;SDS011;49406;51.044;3.766;2022-07-01T15:18:43;7.90;;;1.30;;
63280;SDS011;49406;51.044;3.766;2022-07-01T15:21:17;5.90;;;1.20;;
63280;SDS011;49406;51.044;3.766;2022-07-01T15:23:52;7.60;;;1.20;;
63280;SDS011;49406;51.044;3.766;2022-07-01T15:26:26;5.80;;;1.20;;
63280;SDS011;49406;51.044;3.766;2022-07-01T15:29:01;7.90;;;1.20;;
63280;SDS011;49406;51.044;3.766;2022-07-01T15:31:35;6.50;;;1.30;;
63280;SDS011;49406;51.044;3.766;2022-07-01T15:34:10;7.60;;;1.20;;
63280;SDS011;49406;51.044;3.766;2022-07-01T15:36:45;7.50;;;1.30;;
63280;SDS011;49406;51.044;3.766;2022-07-01T15:39:19;5.60;;;1.00;;
63280;SDS011;49406;51.044;3.766;2022-07-01T15:41:54;7.20;;;1.20;;